sensor_id;sensor_type;location;lat;lon;timestamp;P1;durP1;ratioP1;P2;durP2;ratioP2
37781;SDS011;23621;50.878;4.584;2023-04-15T00:01:50;5.93;;;4.40;;
37781;SDS011;23621;50.878;4.584;2023-04-15T00:04:17;7.32;;;5.03;;
37781;SDS011;23621;50.878;4.584;2023-04-15T00:06:51;8.80;;;4.90;;
37781;SDS011;23621;50.878;4.584;2023-04-15T00:09:18;9.05;;;6.78;;
37781;SDS011;23621;50.878;4.584;2023-04-15T00:11:46;8.88;;;7.18;;
37781;SDS011;23621;50.878;4.584;2023-04-15T00:14:13;11.48;;;8.40;;
37781;SDS011;23621;50.878;4.584;2023-04-15T00:16:40;10.32;;;7.57;;
37781;SDS011;23621;50.878;4.584;2023-04-15T00:19:07;12.57;;;8.95;;
37781;SDS011;23621;50.878;4.584;2023-04-15T00:21:34;13.90;;;10.52;;
37781;SDS011;23621;50.878;4.584;2023-04-15T00:24:01;13.98;;;10.40;;
37781;SDS011;23621;50.878;4.584;2023-04-15T00:26:29;14.23;;;9.65;;
37781;SDS011;23621;50.878;4.584;2023-04-15T00:28:55;12.05;;;8.88;;
37781;SDS011;23621;50.878;4.584;2023-04-15T00:31:23;11.20;;;8.57;;
37781;SDS011;23621;50.878;4.584;2023-04-15T00:33:51;10.63;;;8.05;;
37781;SDS011;23621;50.878;4.584;2023-04-15T00:36:18;9.80;;;7.55;;
37781;SDS011;23621;50.878;4.584;2023-04-15T00:38:45;8.60;;;7.03;;
37781;SDS011;23621;50.878;4.584;2023-04-15T00:41:12;11.18;;;8.27;;
37781;SDS011;23621;50.878;4.584;2023-04-15T00:43:39;11.10;;;9.13;;
37781;SDS011;23621;50.878;4.584;2023-04-15T00:46:06;7.88;;;6.68;;
37781;SDS011;23621;50.878;4.584;2023-04-15T00:48:35;7.80;;;6.53;;
37781;SDS011;23621;50.878;4.584;2023-04-15T00:51:04;8.25;;;6.57;;
37781;SDS011;23621;50.878;4.584;2023-04-15T00:53:32;8.15;;;5.53;;
37781;SDS011;23621;50.878;4.584;2023-04-15T00:55:59;6.03;;;5.43;;
37781;SDS011;23621;50.878;4.584;2023-04-15T00:58:26;6.10;;;5.00;;
37781;SDS011;23621;50.878;4.584;2023-04-15T01:00:54;5.90;;;5.28;;
37781;SDS011;23621;50.878;4.584;2023-04-15T01:03:21;7.53;;;6.20;;
37781;SDS011;23621;50.878;4.584;2023-04-15T01:05:48;8.68;;;6.22;;
37781;SDS011;23621;50.878;4.584;2023-04-15T01:08:16;6.63;;;5.82;;
37781;SDS011;23621;50.878;4.584;2023-04-15T01:10:43;7.47;;;5.90;;
37781;SDS011;23621;50.878;4.584;2023-04-15T01:13:10;7.25;;;6.03;;
37781;SDS011;23621;50.878;4.584;2023-04-15T01:15:37;10.18;;;6.78;;
37781;SDS011;23621;50.878;4.584;2023-04-15T01:18:04;6.80;;;5.55;;
37781;SDS011;23621;50.878;4.584;2023-04-15T01:20:33;5.75;;;4.97;;
37781;SDS011;23621;50.878;4.584;2023-04-15T01:23:00;6.93;;;4.72;;
37781;SDS011;23621;50.878;4.584;2023-04-15T01:25:31;5.65;;;4.40;;
37781;SDS011;23621;50.878;4.584;2023-04-15T01:27:59;5.05;;;4.22;;
37781;SDS011;23621;50.878;4.584;2023-04-15T01:30:26;5.60;;;4.07;;
37781;SDS011;23621;50.878;4.584;2023-04-15T01:32:53;6.93;;;3.88;;
37781;SDS011;23621;50.878;4.584;2023-04-15T01:35:20;6.72;;;4.45;;
37781;SDS011;23621;50.878;4.584;2023-04-15T01:37:47;5.45;;;4.18;;
37781;SDS011;23621;50.878;4.584;2023-04-15T01:40:15;4.03;;;3.65;;
37781;SDS011;23621;50.878;4.584;2023-04-15T01:42:42;6.28;;;4.22;;
37781;SDS011;23621;50.878;4.584;2023-04-15T01:45:09;4.75;;;4.05;;
37781;SDS011;23621;50.878;4.584;2023-04-15T01:47:36;7.55;;;4.03;;
37781;SDS011;23621;50.878;4.584;2023-04-15T01:50:03;5.03;;;3.95;;
37781;SDS011;23621;50.878;4.584;2023-04-15T01:52:31;6.40;;;3.92;;
37781;SDS011;23621;50.878;4.584;2023-04-15T01:54:58;6.70;;;4.57;;
37781;SDS011;23621;50.878;4.584;2023-04-15T01:57:25;5.43;;;4.25;;
37781;SDS011;23621;50.878;4.584;2023-04-15T01:59:52;4.30;;;3.90;;
37781;SDS011;23621;50.878;4.584;2023-04-15T02:02:19;5.10;;;4.45;;
37781;SDS011;23621;50.878;4.584;2023-04-15T02:04:46;4.65;;;4.10;;
37781;SDS011;23621;50.878;4.584;2023-04-15T02:07:13;5.88;;;4.18;;
37781;SDS011;23621;50.878;4.584;2023-04-15T02:09:40;5.57;;;4.00;;
37781;SDS011;23621;50.878;4.584;2023-04-15T02:12:08;5.13;;;4.18;;
37781;SDS011;23621;50.878;4.584;2023-04-15T02:14:35;4.38;;;3.97;;
37781;SDS011;23621;50.878;4.584;2023-04-15T02:17:02;5.32;;;3.92;;
37781;SDS011;23621;50.878;4.584;2023-04-15T02:19:33;4.05;;;3.70;;
37781;SDS011;23621;50.878;4.584;2023-04-15T02:22:00;4.40;;;4.00;;
37781;SDS011;23621;50.878;4.584;2023-04-15T02:24:28;5.43;;;4.35;;
37781;SDS011;23621;50.878;4.584;2023-04-15T02:26:56;4.55;;;4.10;;
37781;SDS011;23621;50.878;4.584;2023-04-15T02:29:23;6.07;;;4.07;;
37781;SDS011;23621;50.878;4.584;2023-04-15T02:31:50;5.05;;;4.22;;
37781;SDS011;23621;50.878;4.584;2023-04-15T02:34:17;4.55;;;4.10;;
37781;SDS011;23621;50.878;4.584;2023-04-15T02:36:44;4.82;;;4.10;;
37781;SDS011;23621;50.878;4.584;2023-04-15T02:39:13;5.30;;;4.47;;
37781;SDS011;23621;50.878;4.584;2023-04-15T02:41:42;5.32;;;4.80;;
37781;SDS011;23621;50.878;4.584;2023-04-15T02:44:12;5.45;;;4.60;;
37781;SDS011;23621;50.878;4.584;2023-04-15T02:46:39;5.65;;;4.95;;
37781;SDS011;23621;50.878;4.584;2023-04-15T02:49:06;5.93;;;4.88;;
37781;SDS011;23621;50.878;4.584;2023-04-15T02:51:33;5.55;;;4.70;;
37781;SDS011;23621;50.878;4.584;2023-04-15T02:54:00;5.20;;;4.70;;
37781;SDS011;23621;50.878;4.584;2023-04-15T02:56:27;5.90;;;5.05;;
37781;SDS011;23621;50.878;4.584;2023-04-15T02:58:55;7.43;;;4.82;;
37781;SDS011;23621;50.878;4.584;2023-04-15T03:01:22;5.20;;;4.60;;
37781;SDS011;23621;50.878;4.584;2023-04-15T03:03:49;5.20;;;4.70;;
37781;SDS011;23621;50.878;4.584;2023-04-15T03:06:16;5.28;;;4.78;;
37781;SDS011;23621;50.878;4.584;2023-04-15T03:08:43;5.88;;;5.03;;
37781;SDS011;23621;50.878;4.584;2023-04-15T03:11:10;5.40;;;4.90;;
37781;SDS011;23621;50.878;4.584;2023-04-15T03:13:37;4.88;;;4.47;;
37781;SDS011;23621;50.878;4.584;2023-04-15T03:16:07;7.35;;;4.88;;
37781;SDS011;23621;50.878;4.584;2023-04-15T03:18:34;4.95;;;4.53;;
37781;SDS011;23621;50.878;4.584;2023-04-15T03:21:01;5.45;;;4.68;;
37781;SDS011;23621;50.878;4.584;2023-04-15T03:23:29;6.72;;;5.05;;
37781;SDS011;23621;50.878;4.584;2023-04-15T03:25:56;7.18;;;5.00;;
37781;SDS011;23621;50.878;4.584;2023-04-15T03:28:26;4.97;;;4.47;;
37781;SDS011;23621;50.878;4.584;2023-04-15T03:30:54;6.07;;;5.28;;
37781;SDS011;23621;50.878;4.584;2023-04-15T03:33:21;5.85;;;4.82;;
37781;SDS011;23621;50.878;4.584;2023-04-15T03:35:49;6.43;;;5.82;;
37781;SDS011;23621;50.878;4.584;2023-04-15T03:38:17;4.82;;;4.43;;
37781;SDS011;23621;50.878;4.584;2023-04-15T03:40:45;4.78;;;4.47;;
37781;SDS011;23621;50.878;4.584;2023-04-15T03:43:12;6.22;;;5.30;;
37781;SDS011;23621;50.878;4.584;2023-04-15T03:45:39;5.93;;;5.32;;
37781;SDS011;23621;50.878;4.584;2023-04-15T03:48:06;6.10;;;5.50;;
37781;SDS011;23621;50.878;4.584;2023-04-15T03:50:43;6.80;;;5.50;;
37781;SDS011;23621;50.878;4.584;2023-04-15T03:53:11;5.20;;;4.70;;
37781;SDS011;23621;50.878;4.584;2023-04-15T03:55:38;7.00;;;5.25;;
37781;SDS011;23621;50.878;4.584;2023-04-15T03:58:05;6.55;;;5.78;;
37781;SDS011;23621;50.878;4.584;2023-04-15T04:00:32;7.05;;;5.07;;
37781;SDS011;23621;50.878;4.584;2023-04-15T04:02:59;7.10;;;5.20;;
37781;SDS011;23621;50.878;4.584;2023-04-15T04:05:26;7.05;;;5.15;;
37781;SDS011;23621;50.878;4.584;2023-04-15T04:07:53;6.00;;;5.40;;
37781;SDS011;23621;50.878;4.584;2023-04-15T04:10:21;6.15;;;5.35;;
37781;SDS011;23621;50.878;4.584;2023-04-15T04:12:48;5.55;;;5.05;;
37781;SDS011;23621;50.878;4.584;2023-04-15T04:15:15;6.78;;;5.18;;
37781;SDS011;23621;50.878;4.584;2023-04-15T04:17:42;6.35;;;5.38;;
37781;SDS011;23621;50.878;4.584;2023-04-15T04:20:09;7.63;;;5.30;;
37781;SDS011;23621;50.878;4.584;2023-04-15T04:22:37;5.38;;;4.88;;
37781;SDS011;23621;50.878;4.584;2023-04-15T04:25:06;5.60;;;5.10;;
37781;SDS011;23621;50.878;4.584;2023-04-15T04:27:34;6.07;;;5.47;;
37781;SDS011;23621;50.878;4.584;2023-04-15T04:30:01;5.53;;;5.07;;
37781;SDS011;23621;50.878;4.584;2023-04-15T04:32:28;6.00;;;5.43;;
37781;SDS011;23621;50.878;4.584;2023-04-15T04:34:55;6.30;;;5.70;;
37781;SDS011;23621;50.878;4.584;2023-04-15T04:37:22;5.78;;;5.18;;
37781;SDS011;23621;50.878;4.584;2023-04-15T04:39:50;5.63;;;5.13;;
37781;SDS011;23621;50.878;4.584;2023-04-15T04:42:17;6.00;;;5.40;;
37781;SDS011;23621;50.878;4.584;2023-04-15T04:44:43;7.25;;;5.78;;
37781;SDS011;23621;50.878;4.584;2023-04-15T04:47:10;6.35;;;5.75;;
37781;SDS011;23621;50.878;4.584;2023-04-15T04:49:37;7.60;;;5.50;;
37781;SDS011;23621;50.878;4.584;2023-04-15T04:52:04;6.18;;;5.57;;
37781;SDS011;23621;50.878;4.584;2023-04-15T04:54:32;5.90;;;5.40;;
37781;SDS011;23621;50.878;4.584;2023-04-15T04:56:59;5.82;;;5.32;;
37781;SDS011;23621;50.878;4.584;2023-04-15T04:59:26;7.22;;;5.53;;
37781;SDS011;23621;50.878;4.584;2023-04-15T05:01:53;6.70;;;6.10;;
37781;SDS011;23621;50.878;4.584;2023-04-15T05:04:20;6.15;;;5.55;;
37781;SDS011;23621;50.878;4.584;2023-04-15T05:06:47;7.53;;;6.07;;
37781;SDS011;23621;50.878;4.584;2023-04-15T05:09:14;7.82;;;6.50;;
37781;SDS011;23621;50.878;4.584;2023-04-15T05:11:41;7.15;;;6.10;;
37781;SDS011;23621;50.878;4.584;2023-04-15T05:14:08;6.70;;;6.00;;
37781;SDS011;23621;50.878;4.584;2023-04-15T05:16:35;7.85;;;6.50;;
37781;SDS011;23621;50.878;4.584;2023-04-15T05:19:02;8.27;;;6.43;;
37781;SDS011;23621;50.878;4.584;2023-04-15T05:21:29;7.10;;;6.32;;
37781;SDS011;23621;50.878;4.584;2023-04-15T05:23:56;7.38;;;6.65;;
37781;SDS011;23621;50.878;4.584;2023-04-15T05:26:23;8.73;;;6.68;;
37781;SDS011;23621;50.878;4.584;2023-04-15T05:28:50;7.55;;;6.75;;
37781;SDS011;23621;50.878;4.584;2023-04-15T05:31:17;7.90;;;6.63;;
37781;SDS011;23621;50.878;4.584;2023-04-15T05:33:44;7.05;;;6.35;;
37781;SDS011;23621;50.878;4.584;2023-04-15T05:36:11;7.10;;;6.40;;
37781;SDS011;23621;50.878;4.584;2023-04-15T05:38:38;6.93;;;5.97;;
37781;SDS011;23621;50.878;4.584;2023-04-15T05:41:05;7.63;;;6.35;;
37781;SDS011;23621;50.878;4.584;2023-04-15T05:43:32;7.45;;;6.22;;
37781;SDS011;23621;50.878;4.584;2023-04-15T05:45:59;7.13;;;5.88;;
37781;SDS011;23621;50.878;4.584;2023-04-15T05:48:26;8.15;;;5.68;;
37781;SDS011;23621;50.878;4.584;2023-04-15T05:50:53;6.55;;;5.78;;
37781;SDS011;23621;50.878;4.584;2023-04-15T05:53:20;7.10;;;6.40;;
37781;SDS011;23621;50.878;4.584;2023-04-15T05:55:47;8.02;;;6.10;;
37781;SDS011;23621;50.878;4.584;2023-04-15T05:58:14;6.80;;;6.13;;
37781;SDS011;23621;50.878;4.584;2023-04-15T06:00:41;6.90;;;6.20;;
37781;SDS011;23621;50.878;4.584;2023-04-15T06:03:09;7.18;;;6.25;;
37781;SDS011;23621;50.878;4.584;2023-04-15T06:05:37;8.05;;;6.30;;
37781;SDS011;23621;50.878;4.584;2023-04-15T06:08:04;7.72;;;6.30;;
37781;SDS011;23621;50.878;4.584;2023-04-15T06:10:31;7.65;;;5.97;;
37781;SDS011;23621;50.878;4.584;2023-04-15T06:13:02;6.90;;;6.20;;
37781;SDS011;23621;50.878;4.584;2023-04-15T06:15:29;10.50;;;6.10;;
37781;SDS011;23621;50.878;4.584;2023-04-15T06:17:57;10.75;;;6.15;;
37781;SDS011;23621;50.878;4.584;2023-04-15T06:20:24;9.40;;;6.53;;
37781;SDS011;23621;50.878;4.584;2023-04-15T06:22:51;6.10;;;5.50;;
37781;SDS011;23621;50.878;4.584;2023-04-15T06:25:18;10.10;;;6.57;;
37781;SDS011;23621;50.878;4.584;2023-04-15T06:27:45;8.00;;;6.30;;
37781;SDS011;23621;50.878;4.584;2023-04-15T06:30:13;7.93;;;6.15;;
37781;SDS011;23621;50.878;4.584;2023-04-15T06:32:40;10.20;;;5.85;;
37781;SDS011;23621;50.878;4.584;2023-04-15T06:35:07;7.00;;;6.05;;
37781;SDS011;23621;50.878;4.584;2023-04-15T06:37:35;9.48;;;5.55;;
37781;SDS011;23621;50.878;4.584;2023-04-15T06:40:02;7.53;;;5.95;;
37781;SDS011;23621;50.878;4.584;2023-04-15T06:42:30;8.70;;;6.72;;
37781;SDS011;23621;50.878;4.584;2023-04-15T06:44:57;7.80;;;6.10;;
37781;SDS011;23621;50.878;4.584;2023-04-15T06:47:24;7.60;;;5.88;;
37781;SDS011;23621;50.878;4.584;2023-04-15T06:49:52;6.45;;;5.85;;
37781;SDS011;23621;50.878;4.584;2023-04-15T06:52:19;8.13;;;6.35;;
37781;SDS011;23621;50.878;4.584;2023-04-15T06:54:46;7.35;;;6.15;;
37781;SDS011;23621;50.878;4.584;2023-04-15T06:57:13;6.35;;;5.75;;
37781;SDS011;23621;50.878;4.584;2023-04-15T06:59:43;9.63;;;6.38;;
37781;SDS011;23621;50.878;4.584;2023-04-15T07:02:10;10.88;;;6.20;;
37781;SDS011;23621;50.878;4.584;2023-04-15T07:04:38;9.40;;;6.68;;
37781;SDS011;23621;50.878;4.584;2023-04-15T07:07:06;7.20;;;6.10;;
37781;SDS011;23621;50.878;4.584;2023-04-15T07:09:33;9.30;;;5.95;;
37781;SDS011;23621;50.878;4.584;2023-04-15T07:12:00;9.43;;;6.43;;
37781;SDS011;23621;50.878;4.584;2023-04-15T07:14:27;7.63;;;5.97;;
37781;SDS011;23621;50.878;4.584;2023-04-15T07:16:54;8.38;;;6.15;;
37781;SDS011;23621;50.878;4.584;2023-04-15T07:19:21;7.32;;;5.72;;
37781;SDS011;23621;50.878;4.584;2023-04-15T07:21:48;7.85;;;6.30;;
37781;SDS011;23621;50.878;4.584;2023-04-15T07:24:15;9.82;;;6.93;;
37781;SDS011;23621;50.878;4.584;2023-04-15T07:26:45;8.77;;;6.68;;
37781;SDS011;23621;50.878;4.584;2023-04-15T07:29:12;7.82;;;6.78;;
37781;SDS011;23621;50.878;4.584;2023-04-15T07:31:39;9.20;;;7.68;;
37781;SDS011;23621;50.878;4.584;2023-04-15T07:34:07;8.10;;;7.25;;
37781;SDS011;23621;50.878;4.584;2023-04-15T07:36:34;11.05;;;7.70;;
37781;SDS011;23621;50.878;4.584;2023-04-15T07:39:02;11.70;;;7.90;;
37781;SDS011;23621;50.878;4.584;2023-04-15T07:41:29;9.32;;;8.02;;
37781;SDS011;23621;50.878;4.584;2023-04-15T07:43:57;9.13;;;8.15;;
37781;SDS011;23621;50.878;4.584;2023-04-15T07:46:24;12.27;;;7.57;;
37781;SDS011;23621;50.878;4.584;2023-04-15T07:48:52;10.55;;;8.65;;
37781;SDS011;23621;50.878;4.584;2023-04-15T07:51:19;12.00;;;8.63;;
37781;SDS011;23621;50.878;4.584;2023-04-15T07:53:47;12.00;;;9.65;;
37781;SDS011;23621;50.878;4.584;2023-04-15T07:56:15;10.63;;;8.50;;
37781;SDS011;23621;50.878;4.584;2023-04-15T07:58:42;11.65;;;9.25;;
37781;SDS011;23621;50.878;4.584;2023-04-15T08:01:09;10.07;;;9.05;;
37781;SDS011;23621;50.878;4.584;2023-04-15T08:03:36;12.35;;;9.68;;
37781;SDS011;23621;50.878;4.584;2023-04-15T08:06:04;10.90;;;9.50;;
37781;SDS011;23621;50.878;4.584;2023-04-15T08:08:31;10.75;;;9.50;;
37781;SDS011;23621;50.878;4.584;2023-04-15T08:10:58;12.00;;;9.45;;
37781;SDS011;23621;50.878;4.584;2023-04-15T08:13:25;10.40;;;9.35;;
37781;SDS011;23621;50.878;4.584;2023-04-15T08:18:42;10.93;;;9.70;;
37781;SDS011;23621;50.878;4.584;2023-04-15T08:21:09;11.80;;;9.45;;
37781;SDS011;23621;50.878;4.584;2023-04-15T08:23:37;11.38;;;10.18;;
37781;SDS011;23621;50.878;4.584;2023-04-15T08:26:04;14.27;;;9.68;;
37781;SDS011;23621;50.878;4.584;2023-04-15T08:28:31;12.07;;;8.60;;
37781;SDS011;23621;50.878;4.584;2023-04-15T08:30:58;10.63;;;9.00;;
37781;SDS011;23621;50.878;4.584;2023-04-15T08:33:25;10.65;;;7.90;;
37781;SDS011;23621;50.878;4.584;2023-04-15T08:35:54;10.00;;;8.15;;
37781;SDS011;23621;50.878;4.584;2023-04-15T08:38:21;9.00;;;7.20;;
37781;SDS011;23621;50.878;4.584;2023-04-15T08:40:48;8.07;;;7.32;;
37781;SDS011;23621;50.878;4.584;2023-04-15T08:43:22;7.97;;;7.18;;
37781;SDS011;23621;50.878;4.584;2023-04-15T08:45:51;9.05;;;6.43;;
37781;SDS011;23621;50.878;4.584;2023-04-15T08:48:19;7.55;;;6.72;;
37781;SDS011;23621;50.878;4.584;2023-04-15T08:50:48;10.10;;;7.30;;
37781;SDS011;23621;50.878;4.584;2023-04-15T08:53:14;11.38;;;6.93;;
37781;SDS011;23621;50.878;4.584;2023-04-15T08:55:42;11.95;;;6.47;;
37781;SDS011;23621;50.878;4.584;2023-04-15T08:58:11;14.70;;;6.88;;
37781;SDS011;23621;50.878;4.584;2023-04-15T09:00:41;10.13;;;7.13;;
37781;SDS011;23621;50.878;4.584;2023-04-15T09:03:08;11.13;;;6.97;;
37781;SDS011;23621;50.878;4.584;2023-04-15T09:05:36;6.90;;;6.20;;
37781;SDS011;23621;50.878;4.584;2023-04-15T09:08:03;10.20;;;6.97;;
37781;SDS011;23621;50.878;4.584;2023-04-15T09:10:31;9.63;;;7.28;;
37781;SDS011;23621;50.878;4.584;2023-04-15T09:12:59;8.07;;;7.22;;
37781;SDS011;23621;50.878;4.584;2023-04-15T09:15:27;7.97;;;7.18;;
37781;SDS011;23621;50.878;4.584;2023-04-15T09:17:55;8.23;;;7.15;;
37781;SDS011;23621;50.878;4.584;2023-04-15T09:20:22;8.00;;;7.20;;
37781;SDS011;23621;50.878;4.584;2023-04-15T09:22:49;7.82;;;7.03;;
37781;SDS011;23621;50.878;4.584;2023-04-15T09:28:05;7.60;;;6.10;;
37781;SDS011;23621;50.878;4.584;2023-04-15T09:30:32;6.00;;;5.32;;
37781;SDS011;23621;50.878;4.584;2023-04-15T09:33:00;7.38;;;5.03;;
37781;SDS011;23621;50.878;4.584;2023-04-15T09:35:30;5.78;;;4.63;;
37781;SDS011;23621;50.878;4.584;2023-04-15T09:38:07;5.30;;;4.88;;
37781;SDS011;23621;50.878;4.584;2023-04-15T09:40:41;6.45;;;4.75;;
37781;SDS011;23621;50.878;4.584;2023-04-15T09:43:08;6.72;;;5.25;;
37781;SDS011;23621;50.878;4.584;2023-04-15T09:45:38;7.82;;;5.85;;
37781;SDS011;23621;50.878;4.584;2023-04-15T09:48:20;7.35;;;6.65;;
37781;SDS011;23621;50.878;4.584;2023-04-15T09:50:50;6.47;;;5.88;;
37781;SDS011;23621;50.878;4.584;2023-04-15T09:53:20;7.78;;;6.05;;
37781;SDS011;23621;50.878;4.584;2023-04-15T09:55:52;6.15;;;5.55;;
37781;SDS011;23621;50.878;4.584;2023-04-15T09:58:24;7.20;;;6.50;;
37781;SDS011;23621;50.878;4.584;2023-04-15T10:00:53;6.10;;;5.32;;
37781;SDS011;23621;50.878;4.584;2023-04-15T10:03:23;6.22;;;5.60;;
37781;SDS011;23621;50.878;4.584;2023-04-15T10:05:53;6.13;;;5.53;;
37781;SDS011;23621;50.878;4.584;2023-04-15T10:08:23;5.10;;;4.68;;
37781;SDS011;23621;50.878;4.584;2023-04-15T10:10:54;5.40;;;3.92;;
37781;SDS011;23621;50.878;4.584;2023-04-15T10:13:22;6.28;;;4.00;;
37781;SDS011;23621;50.878;4.584;2023-04-15T10:15:55;5.03;;;4.47;;
37781;SDS011;23621;50.878;4.584;2023-04-15T10:18:30;4.70;;;4.20;;
37781;SDS011;23621;50.878;4.584;2023-04-15T10:21:00;4.72;;;4.30;;
37781;SDS011;23621;50.878;4.584;2023-04-15T10:23:27;4.32;;;3.92;;
37781;SDS011;23621;50.878;4.584;2023-04-15T10:25:55;5.13;;;3.80;;
37781;SDS011;23621;50.878;4.584;2023-04-15T10:28:24;4.15;;;3.80;;
37781;SDS011;23621;50.878;4.584;2023-04-15T10:30:51;4.68;;;3.88;;
37781;SDS011;23621;50.878;4.584;2023-04-15T10:33:20;4.00;;;3.40;;
37781;SDS011;23621;50.878;4.584;2023-04-15T10:35:49;3.95;;;3.58;;
37781;SDS011;23621;50.878;4.584;2023-04-15T10:43:50;4.32;;;3.30;;
37781;SDS011;23621;50.878;4.584;2023-04-15T10:46:23;4.80;;;3.63;;
37781;SDS011;23621;50.878;4.584;2023-04-15T10:48:51;4.05;;;3.70;;
37781;SDS011;23621;50.878;4.584;2023-04-15T10:51:28;4.30;;;4.00;;
37781;SDS011;23621;50.878;4.584;2023-04-15T10:53:57;5.22;;;3.88;;
37781;SDS011;23621;50.878;4.584;2023-04-15T10:56:26;3.63;;;3.15;;
37781;SDS011;23621;50.878;4.584;2023-04-15T10:58:54;4.13;;;3.70;;
37781;SDS011;23621;50.878;4.584;2023-04-15T11:01:45;3.85;;;3.45;;
37781;SDS011;23621;50.878;4.584;2023-04-15T11:10:02;5.13;;;4.25;;
37781;SDS011;23621;50.878;4.584;2023-04-15T11:12:51;3.55;;;3.25;;
37781;SDS011;23621;50.878;4.584;2023-04-15T11:15:29;2.85;;;2.65;;
37781;SDS011;23621;50.878;4.584;2023-04-15T11:20:35;3.33;;;3.13;;
37781;SDS011;23621;50.878;4.584;2023-04-15T11:23:02;3.42;;;3.13;;
37781;SDS011;23621;50.878;4.584;2023-04-15T11:25:40;3.08;;;2.83;;
37781;SDS011;23621;50.878;4.584;2023-04-15T11:28:10;3.92;;;2.72;;
37781;SDS011;23621;50.878;4.584;2023-04-15T11:30:38;4.15;;;3.70;;
37781;SDS011;23621;50.878;4.584;2023-04-15T11:33:09;4.93;;;3.80;;
37781;SDS011;23621;50.878;4.584;2023-04-15T11:35:40;3.63;;;3.25;;
37781;SDS011;23621;50.878;4.584;2023-04-15T11:38:08;3.60;;;3.30;;
37781;SDS011;23621;50.878;4.584;2023-04-15T11:40:40;4.03;;;3.63;;
37781;SDS011;23621;50.878;4.584;2023-04-15T11:43:16;5.35;;;3.53;;
37781;SDS011;23621;50.878;4.584;2023-04-15T11:48:14;4.72;;;3.50;;
37781;SDS011;23621;50.878;4.584;2023-04-15T11:50:41;3.90;;;3.10;;
37781;SDS011;23621;50.878;4.584;2023-04-15T11:53:10;3.70;;;2.10;;
37781;SDS011;23621;50.878;4.584;2023-04-15T11:55:48;2.10;;;1.90;;
37781;SDS011;23621;50.878;4.584;2023-04-15T11:58:24;2.33;;;2.13;;
37781;SDS011;23621;50.878;4.584;2023-04-15T12:03:26;4.38;;;2.80;;
37781;SDS011;23621;50.878;4.584;2023-04-15T12:08:49;3.88;;;2.50;;
37781;SDS011;23621;50.878;4.584;2023-04-15T12:13:54;4.88;;;3.33;;
37781;SDS011;23621;50.878;4.584;2023-04-15T12:16:36;3.55;;;3.22;;
37781;SDS011;23621;50.878;4.584;2023-04-15T12:19:54;7.40;;;4.35;;
37781;SDS011;23621;50.878;4.584;2023-04-15T12:22:13;5.57;;;3.22;;
37781;SDS011;23621;50.878;4.584;2023-04-15T12:24:41;4.25;;;2.90;;
37781;SDS011;23621;50.878;4.584;2023-04-15T12:27:12;4.88;;;3.00;;
37781;SDS011;23621;50.878;4.584;2023-04-15T12:29:41;65.30;;;23.30;;
37781;SDS011;23621;50.878;4.584;2023-04-15T12:32:12;13.38;;;5.95;;
37781;SDS011;23621;50.878;4.584;2023-04-15T12:34:50;4.38;;;2.42;;
37781;SDS011;23621;50.878;4.584;2023-04-15T12:37:22;8.65;;;4.25;;
37781;SDS011;23621;50.878;4.584;2023-04-15T12:39:49;5.25;;;3.17;;
37781;SDS011;23621;50.878;4.584;2023-04-15T12:42:16;4.07;;;2.10;;
37781;SDS011;23621;50.878;4.584;2023-04-15T12:44:44;6.18;;;3.65;;
37781;SDS011;23621;50.878;4.584;2023-04-15T12:47:11;10.20;;;3.88;;
37781;SDS011;23621;50.878;4.584;2023-04-15T12:49:38;7.30;;;2.90;;
37781;SDS011;23621;50.878;4.584;2023-04-15T12:52:06;5.40;;;3.42;;
37781;SDS011;23621;50.878;4.584;2023-04-15T12:54:33;3.60;;;3.17;;
37781;SDS011;23621;50.878;4.584;2023-04-15T12:57:01;22.13;;;7.70;;
37781;SDS011;23621;50.878;4.584;2023-04-15T12:59:32;5.60;;;2.90;;
37781;SDS011;23621;50.878;4.584;2023-04-15T13:01:59;7.25;;;4.20;;
37781;SDS011;23621;50.878;4.584;2023-04-15T13:04:28;4.75;;;3.20;;
37781;SDS011;23621;50.878;4.584;2023-04-15T13:06:56;24.35;;;9.68;;
37781;SDS011;23621;50.878;4.584;2023-04-15T13:09:23;12.32;;;6.28;;
37781;SDS011;23621;50.878;4.584;2023-04-15T13:11:50;2.53;;;2.08;;
37781;SDS011;23621;50.878;4.584;2023-04-15T13:14:18;2.53;;;2.30;;
37781;SDS011;23621;50.878;4.584;2023-04-15T13:16:45;2.90;;;2.05;;
37781;SDS011;23621;50.878;4.584;2023-04-15T13:19:12;4.07;;;2.28;;
37781;SDS011;23621;50.878;4.584;2023-04-15T13:21:39;3.20;;;2.42;;
37781;SDS011;23621;50.878;4.584;2023-04-15T13:24:06;2.38;;;2.17;;
37781;SDS011;23621;50.878;4.584;2023-04-15T13:26:34;2.22;;;2.05;;
37781;SDS011;23621;50.878;4.584;2023-04-15T13:29:01;2.28;;;2.00;;
37781;SDS011;23621;50.878;4.584;2023-04-15T13:31:28;3.20;;;2.55;;
37781;SDS011;23621;50.878;4.584;2023-04-15T13:33:55;2.67;;;2.47;;
37781;SDS011;23621;50.878;4.584;2023-04-15T13:36:23;2.95;;;2.45;;
37781;SDS011;23621;50.878;4.584;2023-04-15T13:38:49;2.65;;;2.40;;
37781;SDS011;23621;50.878;4.584;2023-04-15T13:41:17;3.30;;;1.95;;
37781;SDS011;23621;50.878;4.584;2023-04-15T13:43:45;2.70;;;2.10;;
37781;SDS011;23621;50.878;4.584;2023-04-15T13:46:12;2.50;;;2.30;;
37781;SDS011;23621;50.878;4.584;2023-04-15T13:48:40;2.60;;;2.40;;
37781;SDS011;23621;50.878;4.584;2023-04-15T13:51:07;3.78;;;3.20;;
37781;SDS011;23621;50.878;4.584;2023-04-15T13:53:33;3.50;;;2.70;;
37781;SDS011;23621;50.878;4.584;2023-04-15T13:56:05;2.90;;;2.63;;
37781;SDS011;23621;50.878;4.584;2023-04-15T13:58:34;2.60;;;2.40;;
37781;SDS011;23621;50.878;4.584;2023-04-15T14:01:02;3.17;;;2.13;;
37781;SDS011;23621;50.878;4.584;2023-04-15T14:03:32;2.92;;;2.20;;
37781;SDS011;23621;50.878;4.584;2023-04-15T14:06:00;3.78;;;2.55;;
37781;SDS011;23621;50.878;4.584;2023-04-15T14:08:27;2.65;;;2.10;;
37781;SDS011;23621;50.878;4.584;2023-04-15T14:10:55;3.72;;;1.85;;
37781;SDS011;23621;50.878;4.584;2023-04-15T14:13:23;1.92;;;1.70;;
37781;SDS011;23621;50.878;4.584;2023-04-15T14:15:50;5.78;;;1.50;;
37781;SDS011;23621;50.878;4.584;2023-04-15T14:18:17;2.30;;;1.10;;
37781;SDS011;23621;50.878;4.584;2023-04-15T14:20:44;1.83;;;1.40;;
37781;SDS011;23621;50.878;4.584;2023-04-15T14:23:11;2.60;;;1.20;;
37781;SDS011;23621;50.878;4.584;2023-04-15T14:25:38;1.20;;;1.10;;
37781;SDS011;23621;50.878;4.584;2023-04-15T14:28:04;1.85;;;1.45;;
37781;SDS011;23621;50.878;4.584;2023-04-15T14:30:32;1.95;;;1.60;;
37781;SDS011;23621;50.878;4.584;2023-04-15T14:32:59;2.33;;;1.60;;
37781;SDS011;23621;50.878;4.584;2023-04-15T14:35:26;1.58;;;1.48;;
37781;SDS011;23621;50.878;4.584;2023-04-15T14:37:53;1.77;;;1.65;;
37781;SDS011;23621;50.878;4.584;2023-04-15T14:40:21;3.90;;;1.58;;
37781;SDS011;23621;50.878;4.584;2023-04-15T14:42:48;2.33;;;1.77;;
37781;SDS011;23621;50.878;4.584;2023-04-15T14:45:15;3.65;;;1.90;;
37781;SDS011;23621;50.878;4.584;2023-04-15T14:47:43;4.07;;;2.08;;
37781;SDS011;23621;50.878;4.584;2023-04-15T14:50:10;2.88;;;2.20;;
37781;SDS011;23621;50.878;4.584;2023-04-15T14:52:37;3.30;;;2.10;;
37781;SDS011;23621;50.878;4.584;2023-04-15T14:55:05;2.05;;;1.80;;
37781;SDS011;23621;50.878;4.584;2023-04-15T14:57:33;2.75;;;1.90;;
37781;SDS011;23621;50.878;4.584;2023-04-15T15:00:00;3.17;;;2.00;;
37781;SDS011;23621;50.878;4.584;2023-04-15T15:02:27;3.05;;;2.00;;
37781;SDS011;23621;50.878;4.584;2023-04-15T15:05:05;2.03;;;1.80;;
37781;SDS011;23621;50.878;4.584;2023-04-15T15:07:32;3.63;;;2.10;;
37781;SDS011;23621;50.878;4.584;2023-04-15T15:10:01;5.28;;;2.75;;
37781;SDS011;23621;50.878;4.584;2023-04-15T15:12:28;2.90;;;2.22;;
37781;SDS011;23621;50.878;4.584;2023-04-15T15:14:55;6.32;;;2.05;;
37781;SDS011;23621;50.878;4.584;2023-04-15T15:17:22;5.32;;;3.03;;
37781;SDS011;23621;50.878;4.584;2023-04-15T15:19:49;4.35;;;2.40;;
37781;SDS011;23621;50.878;4.584;2023-04-15T15:22:16;6.38;;;3.10;;